Time;durP1;ratioP1;P1;durP2;ratioP2;P2;SDS_P1;SDS_P2;PMS_P1;PMS_P2;Temp;Humidity;BMP_temperature;BMP_pressure;BME280_temperature;BME280_humidity;BME280_pressure;Samples;Min_cycle;Max_cycle;Signal;HPM_P1;HPM_P2
2021/03/24 00:01:09;;;;;;;54.17;18.80;;;10.10;89.40;;;;;;4997126;28;20050;-74
2021/03/24 00:03:35;;;;;;;57.15;19.42;;;10.00;89.50;;;;;;5002549;28;20030;-74
2021/03/24 00:06:01;;;;;;;60.63;17.98;;;10.00;89.40;;;;;;4997886;28;20061;-74
2021/03/24 00:08:27;;;;;;;43.40;18.08;;;10.00;89.60;;;;;;4994287;28;20499;-74
2021/03/24 00:10:52;;;;;;;52.80;19.02;;;10.00;89.70;;;;;;4997128;28;20041;-73
2021/03/24 00:13:19;;;;;;;43.45;18.83;;;9.90;89.80;;;;;;4995581;28;20037;-73
2021/03/24 00:15:46;;;;;;;49.50;20.27;;;9.90;90.10;;;;;;4995366;28;20034;-73
2021/03/24 00:18:12;;;;;;;59.42;20.17;;;9.90;90.10;;;;;;4995383;28;20024;-73
2021/03/24 00:20:40;;;;;;;51.50;19.65;;;9.80;90.00;;;;;;4996714;28;20050;-73
2021/03/24 00:23:06;;;;;;;49.38;19.23;;;9.80;90.00;;;;;;4997562;28;20044;-73
2021/03/24 00:25:32;;;;;;;49.85;18.42;;;9.80;90.00;;;;;;4996221;28;20041;-74
2021/03/24 00:27:58;;;;;;;46.70;18.10;;;9.80;90.10;;;;;;4996051;28;20034;-74
2021/03/24 00:30:28;;;;;;;53.10;19.67;;;9.80;90.20;;;;;;4996079;28;20512;-74
2021/03/24 00:32:54;;;;;;;52.10;19.40;;;9.80;90.20;;;;;;4996067;28;20030;-74
2021/03/24 00:35:19;;;;;;;47.63;19.25;;;9.80;90.00;;;;;;4995997;28;20049;-73
2021/03/24 00:37:46;;;;;;;43.22;19.10;;;9.80;89.80;;;;;;4996939;28;20022;-73
2021/03/24 00:40:16;;;;;;;46.40;19.92;;;9.80;90.10;;;;;;4994604;28;20121;-73
2021/03/24 00:42:42;;;;;;;50.67;20.48;;;9.70;90.00;;;;;;4997488;28;20030;-73
2021/03/24 00:45:08;;;;;;;48.63;20.17;;;9.70;90.00;;;;;;4995397;28;20034;-74
2021/03/24 00:47:34;;;;;;;52.03;19.60;;;9.70;90.00;;;;;;4996763;28;20026;-74
2021/03/24 00:50:00;;;;;;;44.72;20.15;;;9.60;90.00;;;;;;4993498;28;20037;-74
2021/03/24 00:52:25;;;;;;;48.75;20.52;;;9.60;90.00;;;;;;4995431;28;20106;-74
2021/03/24 00:54:51;;;;;;;49.35;19.60;;;9.60;90.00;;;;;;4994744;28;20418;-74
2021/03/24 00:57:17;;;;;;;41.00;18.77;;;9.50;90.10;;;;;;4995339;28;20046;-74
2021/03/24 00:59:42;;;;;;;41.30;18.15;;;9.50;90.30;;;;;;4996348;28;20832;-74
2021/03/24 01:02:08;;;;;;;45.13;19.35;;;9.40;90.30;;;;;;4995737;28;20112;-74
2021/03/24 01:04:34;;;;;;;42.25;18.42;;;9.40;90.30;;;;;;4992737;28;20416;-73
2021/03/24 01:06:59;;;;;;;46.08;18.45;;;9.40;90.30;;;;;;4994900;28;20029;-74
2021/03/24 01:09:25;;;;;;;41.63;18.92;;;9.40;90.30;;;;;;4995199;28;20485;-74
2021/03/24 01:11:50;;;;;;;49.10;19.17;;;9.40;90.30;;;;;;4994273;28;20029;-74
2021/03/24 01:14:16;;;;;;;48.15;19.30;;;9.40;90.30;;;;;;4994937;28;20615;-73
2021/03/24 01:16:42;;;;;;;54.05;19.33;;;9.40;90.40;;;;;;4996746;28;20053;-74
2021/03/24 01:19:07;;;;;;;52.35;20.20;;;9.40;90.40;;;;;;4995973;28;20488;-73
2021/03/24 01:21:33;;;;;;;49.85;19.55;;;9.30;90.80;;;;;;4994534;28;20083;-73
2021/03/24 01:23:59;;;;;;;45.55;18.13;;;9.30;90.50;;;;;;4995436;28;20503;-74
2021/03/24 01:26:25;;;;;;;53.03;19.70;;;9.40;90.40;;;;;;4996432;28;20084;-73
2021/03/24 01:28:59;;;;;;;58.25;20.48;;;9.30;90.30;;;;;;4994230;28;20034;-74
2021/03/24 01:31:29;;;;;;;49.10;19.70;;;9.30;90.30;;;;;;4998304;28;20488;-75
2021/03/24 01:33:56;;;;;;;60.10;19.85;;;9.30;90.40;;;;;;4994310;28;20026;-74
2021/03/24 01:36:22;;;;;;;42.15;19.15;;;9.20;90.50;;;;;;4996672;28;20068;-74
2021/03/24 01:38:48;;;;;;;48.30;19.20;;;9.30;90.40;;;;;;4994028;28;20053;-74
2021/03/24 01:41:14;;;;;;;42.22;18.00;;;9.30;90.40;;;;;;4994312;28;20030;-74
2021/03/24 01:43:42;;;;;;;48.70;18.85;;;9.30;90.50;;;;;;4992725;28;20490;-74
2021/03/24 01:46:20;;;;;;;48.25;19.40;;;9.30;90.30;;;;;;4995557;28;20964;-73
2021/03/24 01:48:56;;;;;;;50.67;19.45;;;9.20;90.30;;;;;;4993908;28;20034;-74
2021/03/24 01:51:32;;;;;;;45.13;18.65;;;9.20;90.20;;;;;;4995890;28;20066;-73
2021/03/24 01:53:58;;;;;;;38.35;18.80;;;9.20;90.30;;;;;;4996903;28;20034;-73
2021/03/24 01:56:26;;;;;;;51.67;20.33;;;9.10;90.50;;;;;;4995525;28;20026;-74
2021/03/24 01:58:53;;;;;;;64.07;20.13;;;9.10;90.60;;;;;;4994939;28;20145;-74
2021/03/24 02:01:20;;;;;;;54.05;19.67;;;9.10;90.50;;;;;;4995394;28;20018;-74
2021/03/24 02:03:46;;;;;;;47.33;20.15;;;9.10;90.40;;;;;;4998793;28;20030;-74
2021/03/24 02:06:44;;;;;;;44.13;19.40;;;9.10;90.40;;;;;;5001062;28;20022;-75
2021/03/24 02:09:44;;;;;;;46.55;18.73;;;9.10;90.40;;;;;;4998797;28;20122;-73
2021/03/24 02:12:23;;;;;;;48.92;18.85;;;9.10;90.40;;;;;;4998780;28;20022;-73
2021/03/24 02:14:57;;;;;;;45.85;19.10;;;9.00;90.50;;;;;;4995250;28;20026;-74
2021/03/24 02:17:30;;;;;;;43.53;19.33;;;9.00;90.60;;;;;;4996851;28;20014;-74
2021/03/24 02:20:23;;;;;;;61.83;20.30;;;9.00;90.60;;;;;;4998493;28;20072;-74
2021/03/24 02:22:53;;;;;;;52.63;21.05;;;9.00;90.50;;;;;;4999497;28;20018;-74
2021/03/24 02:25:25;;;;;;;51.85;20.67;;;8.90;90.40;;;;;;4996953;28;20041;-73
2021/03/24 02:27:55;;;;;;;50.72;19.50;;;8.90;90.40;;;;;;4998400;28;20022;-74
2021/03/24 02:30:28;;;;;;;45.30;19.88;;;8.90;90.60;;;;;;4998747;28;20042;-74
2021/03/24 02:32:59;;;;;;;53.30;20.65;;;8.90;90.70;;;;;;4999163;28;20033;-74
2021/03/24 02:35:32;;;;;;;57.83;20.02;;;8.90;90.60;;;;;;4998587;28;20081;-74
2021/03/24 02:38:00;;;;;;;50.20;21.15;;;8.90;90.60;;;;;;4997100;28;20036;-74
2021/03/24 02:40:27;;;;;;;53.45;20.60;;;8.90;90.60;;;;;;4997764;28;20089;-74
2021/03/24 02:42:54;;;;;;;55.25;22.40;;;8.90;90.60;;;;;;4997995;28;20040;-73
2021/03/24 02:45:27;;;;;;;54.22;20.70;;;8.80;90.60;;;;;;4994898;28;20026;-73
2021/03/24 02:47:58;;;;;;;52.70;21.17;;;8.80;90.50;;;;;;4997003;28;20026;-74
2021/03/24 02:50:25;;;;;;;54.45;21.65;;;8.80;90.50;;;;;;4998239;28;20157;-74
2021/03/24 02:52:51;;;;;;;59.03;23.38;;;8.70;90.60;;;;;;4998155;28;20026;-74
2021/03/24 02:55:18;;;;;;;56.17;23.20;;;8.70;90.70;;;;;;4997483;28;20034;-74
2021/03/24 02:57:44;;;;;;;53.72;22.20;;;8.70;90.70;;;;;;4996242;28;20026;-74
2021/03/24 03:00:15;;;;;;;59.88;23.27;;;8.70;90.80;;;;;;4998643;28;20057;-74
2021/03/24 03:02:45;;;;;;;61.97;23.08;;;8.70;90.70;;;;;;4997699;28;20026;-74
2021/03/24 03:05:17;;;;;;;59.08;21.65;;;8.80;90.60;;;;;;4996800;28;21152;-74
2021/03/24 03:08:09;;;;;;;50.97;20.23;;;8.70;90.50;;;;;;4998928;28;20053;-75
2021/03/24 03:10:53;;;;;;;57.35;22.58;;;8.70;90.60;;;;;;4997003;28;20042;-74
2021/03/24 03:13:30;;;;;;;55.08;21.23;;;8.70;90.50;;;;;;4995582;28;20021;-75
2021/03/24 03:16:05;;;;;;;59.42;21.33;;;8.70;90.40;;;;;;4995099;28;20038;-73
2021/03/24 03:18:41;;;;;;;54.85;21.48;;;8.70;90.30;;;;;;5003855;28;20030;-73
2021/03/24 03:21:14;;;;;;;52.67;22.25;;;8.60;90.50;;;;;;4995500;28;20042;-73
2021/03/24 03:23:44;;;;;;;61.92;22.52;;;8.60;90.60;;;;;;4998554;28;20105;-74
2021/03/24 03:26:11;;;;;;;58.03;22.25;;;8.60;90.60;;;;;;4996495;28;20385;-73
2021/03/24 03:28:40;;;;;;;53.22;22.00;;;8.60;90.60;;;;;;4998166;28;20018;-74
2021/03/24 03:31:11;;;;;;;61.47;23.00;;;8.60;90.60;;;;;;4997146;28;20604;-74
2021/03/24 03:33:39;;;;;;;57.22;22.88;;;8.60;90.60;;;;;;4997399;28;20037;-74
2021/03/24 03:36:06;;;;;;;59.72;21.98;;;8.50;90.60;;;;;;4996820;28;20038;-73
2021/03/24 03:38:33;;;;;;;62.67;22.70;;;8.50;90.50;;;;;;4997553;28;21076;-73
2021/03/24 03:41:01;;;;;;;60.17;21.83;;;8.50;90.90;;;;;;4997608;28;20058;-74
2021/03/24 03:43:27;;;;;;;60.05;22.83;;;8.50;90.60;;;;;;4995635;28;20504;-74
2021/03/24 03:45:56;;;;;;;57.42;21.90;;;8.50;90.60;;;;;;4995802;28;20098;-72
2021/03/24 03:48:22;;;;;;;49.65;21.42;;;8.50;90.60;;;;;;4991026;28;20125;-76
2021/03/24 03:50:52;;;;;;;60.22;22.15;;;8.50;90.50;;;;;;4997597;28;20129;-78
2021/03/24 03:53:33;;;;;;;50.22;22.05;;;8.50;90.50;;;;;;4995953;28;20528;-78
2021/03/24 03:56:12;;;;;;;67.15;23.58;;;8.50;90.70;;;;;;4997395;28;20108;-74
2021/03/24 03:59:09;;;;;;;49.25;21.60;;;8.50;90.80;;;;;;4997109;28;20038;-74
2021/03/24 04:01:39;;;;;;;61.42;21.33;;;8.50;90.70;;;;;;4996213;28;20459;-74
2021/03/24 04:04:22;;;;;;;70.15;24.20;;;8.50;90.50;;;;;;4999831;28;20030;-77
2021/03/24 04:06:59;;;;;;;54.78;20.65;;;8.50;90.50;;;;;;5000550;28;20041;-77
2021/03/24 04:09:25;;;;;;;62.65;22.13;;;8.50;90.50;;;;;;4996862;28;20369;-77
2021/03/24 04:11:54;;;;;;;64.25;24.23;;;8.50;90.50;;;;;;4997961;28;21181;-77
2021/03/24 04:14:24;;;;;;;66.38;23.02;;;8.50;90.40;;;;;;4996382;28;20057;-74
2021/03/24 04:16:51;;;;;;;65.60;24.73;;;8.50;90.50;;;;;;4995176;28;20068;-74
2021/03/24 04:19:19;;;;;;;64.97;25.23;;;8.40;90.40;;;;;;4996243;28;20053;-75
2021/03/24 04:21:58;;;;;;;70.97;25.38;;;8.30;90.50;;;;;;4996567;28;20038;-75
2021/03/24 04:24:29;;;;;;;73.55;23.50;;;8.30;90.80;;;;;;4995036;28;20023;-74
2021/03/24 04:26:59;;;;;;;68.07;24.33;;;8.30;90.70;;;;;;4996221;28;20022;-76
2021/03/24 04:29:33;;;;;;;58.03;23.50;;;8.30;90.60;;;;;;4997734;28;20034;-75
2021/03/24 04:32:01;;;;;;;63.17;24.35;;;8.30;90.60;;;;;;4996828;28;20065;-75
2021/03/24 04:34:27;;;;;;;61.28;23.80;;;8.30;90.50;;;;;;4997343;28;20109;-75
2021/03/24 04:37:08;;;;;;;71.47;24.15;;;8.30;90.40;;;;;;4996010;28;20126;-76
2021/03/24 04:39:37;;;;;;;78.57;24.80;;;8.30;90.40;;;;;;4997174;28;20041;-76
2021/03/24 04:42:12;;;;;;;69.85;23.75;;;8.30;90.50;;;;;;4996184;28;20025;-76
2021/03/24 04:44:41;;;;;;;65.70;25.00;;;8.30;90.60;;;;;;4994493;28;20128;-77
2021/03/24 04:47:32;;;;;;;65.13;23.83;;;8.30;90.50;;;;;;4995740;28;20508;-77
2021/03/24 04:50:02;;;;;;;63.20;25.30;;;8.30;90.50;;;;;;5001892;28;20026;-77
2021/03/24 04:52:32;;;;;;;66.87;24.23;;;8.30;90.50;;;;;;4995685;28;20390;-77
2021/03/24 04:55:03;;;;;;;77.13;24.88;;;8.30;90.50;;;;;;4998604;28;20026;-76
2021/03/24 04:57:29;;;;;;;62.53;23.02;;;8.30;90.40;;;;;;4996059;28;20026;-76
2021/03/24 05:00:07;;;;;;;58.33;23.95;;;8.20;90.50;;;;;;4996388;28;20045;-76
2021/03/24 05:02:35;;;;;;;77.15;29.35;;;8.20;90.80;;;;;;4995826;28;20057;-76
2021/03/24 05:05:13;;;;;;;74.15;26.83;;;8.20;90.80;;;;;;4994963;28;20026;-76
2021/03/24 05:07:48;;;;;;;87.57;28.20;;;8.20;90.90;;;;;;4996541;28;20019;-76
2021/03/24 05:10:24;;;;;;;72.10;27.33;;;8.20;90.90;;;;;;4996516;28;20034;-76
2021/03/24 05:12:58;;;;;;;67.90;27.75;;;8.20;90.80;;;;;;4996531;28;20385;-76
2021/03/24 05:15:28;;;;;;;69.40;26.80;;;8.20;90.80;;;;;;4995536;28;20049;-76
2021/03/24 05:18:07;;;;;;;65.38;24.63;;;8.20;90.70;;;;;;4995212;28;20031;-76
2021/03/24 05:20:54;;;;;;;67.60;25.10;;;8.20;90.90;;;;;;4993150;28;20077;-76
2021/03/24 05:23:32;;;;;;;65.88;27.45;;;8.20;90.50;;;;;;4994358;28;20040;-74
2021/03/24 05:26:21;;;;;;;71.22;25.60;;;8.20;90.60;;;;;;4994791;28;20026;-77
2021/03/24 05:28:53;;;;;;;67.18;25.52;;;8.20;90.70;;;;;;4997318;28;20026;-76
2021/03/24 05:31:25;;;;;;;64.35;24.80;;;8.20;90.60;;;;;;5001608;28;20045;-77
2021/03/24 05:33:59;;;;;;;61.33;23.42;;;8.20;90.40;;;;;;5011849;28;20144;-76
2021/03/24 05:36:34;;;;;;;62.90;23.17;;;8.20;90.40;;;;;;4994742;28;20038;-75
2021/03/24 05:39:11;;;;;;;57.33;22.98;;;8.10;90.40;;;;;;5014820;28;20449;-74
2021/03/24 05:41:55;;;;;;;73.32;24.30;;;8.10;90.40;;;;;;4999593;28;20034;-74
2021/03/24 05:44:36;;;;;;;64.70;25.33;;;8.10;90.60;;;;;;5000265;28;20049;-73
2021/03/24 05:47:30;;;;;;;67.63;24.92;;;8.10;90.80;;;;;;5000437;28;20045;-74
2021/03/24 05:50:16;;;;;;;65.00;24.73;;;8.10;90.90;;;;;;4995704;28;20030;-74
2021/03/24 05:53:09;;;;;;;62.47;24.15;;;8.10;90.70;;;;;;4999064;28;20041;-75
2021/03/24 05:55:53;;;;;;;65.70;24.85;;;8.10;90.80;;;;;;4999605;28;20026;-74
2021/03/24 05:58:46;;;;;;;63.70;24.38;;;8.10;90.90;;;;;;5000156;28;20038;-73
2021/03/24 06:01:27;;;;;;;63.75;24.25;;;8.00;91.00;;;;;;5002648;28;20045;-74
2021/03/24 06:04:15;;;;;;;59.53;24.05;;;8.00;91.00;;;;;;4998349;28;20026;-74
2021/03/24 06:07:18;;;;;;;61.97;22.98;;;8.00;91.30;;;;;;5001113;28;20511;-75
2021/03/24 06:10:05;;;;;;;58.83;23.80;;;7.90;91.20;;;;;;5003338;28;20018;-74
2021/03/24 06:12:48;;;;;;;68.80;23.67;;;7.90;91.40;;;;;;4998148;28;20462;-74
2021/03/24 06:15:26;;;;;;;63.35;25.67;;;7.90;91.40;;;;;;5011319;28;20037;-74
2021/03/24 06:18:08;;;;;;;65.57;25.67;;;7.90;91.40;;;;;;4997354;28;20036;-74
2021/03/24 06:20:51;;;;;;;67.28;24.80;;;8.00;91.50;;;;;;4999112;28;20049;-73
2021/03/24 06:23:35;;;;;;;56.25;23.40;;;8.00;91.50;;;;;;5001085;28;20485;-74
2021/03/24 06:26:38;;;;;;;61.90;23.35;;;8.00;91.50;;;;;;4998087;28;20050;-74
2021/03/24 06:29:38;;;;;;;65.13;25.17;;;8.10;91.50;;;;;;5004316;28;20033;-74
2021/03/24 06:32:26;;;;;;;57.80;23.30;;;8.10;91.50;;;;;;4995719;28;20038;-73
2021/03/24 06:35:18;;;;;;;66.38;24.40;;;8.10;91.50;;;;;;4999242;28;20053;-73
2021/03/24 06:37:58;;;;;;;61.72;23.80;;;8.20;91.50;;;;;;4998927;28;20030;-74
2021/03/24 06:41:20;;;;;;;60.78;23.30;;;8.20;91.40;;;;;;4998497;28;20401;-74
2021/03/24 06:44:06;;;;;;;56.50;24.25;;;8.30;91.50;;;;;;4980904;28;20027;-74
2021/03/24 06:47:02;;;;;;;55.35;23.05;;;8.30;91.50;;;;;;4942046;28;20039;-75
2021/03/24 06:50:15;;;;;;;67.90;25.63;;;8.40;91.60;;;;;;4923317;29;20023;-74
2021/03/24 06:53:17;;;;;;;60.28;25.15;;;8.50;91.60;;;;;;4878398;29;20061;-74
2021/03/24 06:55:54;;;;;;;57.90;25.20;;;8.50;91.70;;;;;;4878550;29;20081;-74
2021/03/24 06:58:44;;;;;;;65.85;25.70;;;8.60;91.70;;;;;;4880622;29;20041;-74
2021/03/24 07:01:47;;;;;;;71.35;25.98;;;8.60;91.80;;;;;;4878885;29;20057;-74
2021/03/24 07:04:32;;;;;;;65.85;26.13;;;8.60;92.20;;;;;;4878490;29;20044;-74
2021/03/24 07:07:16;;;;;;;72.00;27.13;;;8.70;92.00;;;;;;4881949;29;20044;-73
2021/03/24 07:09:41;;;;;;;64.93;25.67;;;8.70;92.00;;;;;;4879659;29;20049;-74
2021/03/24 07:12:54;;;;;;;63.25;26.45;;;8.80;92.20;;;;;;4877972;29;20088;-74
2021/03/24 07:15:19;;;;;;;65.00;27.38;;;8.80;92.30;;;;;;4861719;29;20124;-75
2021/03/24 07:18:03;;;;;;;68.50;28.23;;;8.90;92.40;;;;;;4878386;29;20508;-74
2021/03/24 07:20:54;;;;;;;76.50;28.75;;;8.90;92.50;;;;;;4880534;29;20089;-75
2021/03/24 07:23:35;;;;;;;78.95;30.50;;;9.00;92.70;;;;;;4893869;29;20064;-74
2021/03/24 07:26:46;;;;;;;80.57;29.13;;;9.00;92.80;;;;;;4905305;29;20126;-75
2021/03/24 07:29:37;;;;;;;77.00;31.07;;;9.10;93.10;;;;;;4933202;28;20034;-74
2021/03/24 07:32:07;;;;;;;81.30;31.33;;;9.20;93.20;;;;;;4997829;28;20880;-74
2021/03/24 07:35:05;;;;;;;81.78;31.95;;;9.30;93.40;;;;;;4996837;28;20053;-75
2021/03/24 07:37:49;;;;;;;89.28;33.13;;;9.30;93.60;;;;;;5005424;28;20034;-75
2021/03/24 07:40:36;;;;;;;87.65;32.70;;;9.40;93.80;;;;;;4994005;28;20132;-73
2021/03/24 07:43:31;;;;;;;81.55;30.90;;;9.50;93.90;;;;;;4998165;28;20493;-73
2021/03/24 07:46:27;;;;;;;85.53;32.92;;;9.60;94.00;;;;;;5001801;28;20550;-75
2021/03/24 07:49:11;;;;;;;77.65;31.05;;;9.70;94.20;;;;;;5021169;28;20060;-75
2021/03/24 07:52:09;;;;;;;75.38;30.98;;;9.80;94.30;;;;;;5023711;28;20021;-73
2021/03/24 07:54:43;;;;;;;75.40;30.73;;;9.80;94.40;;;;;;5018023;28;20022;-75
2021/03/24 07:57:36;;;;;;;84.75;33.05;;;10.00;94.40;;;;;;5018588;28;20034;-75
2021/03/24 08:00:33;;;;;;;83.20;33.08;;;10.10;94.50;;;;;;5019697;28;20025;-74
2021/03/24 08:03:37;;;;;;;84.93;32.78;;;10.10;94.50;;;;;;5009872;28;20026;-76
2021/03/24 08:06:28;;;;;;;84.40;32.50;;;10.20;94.60;;;;;;5009498;28;20034;-76
2021/03/24 08:09:20;;;;;;;85.03;33.60;;;10.30;94.60;;;;;;5010538;28;20631;-77
2021/03/24 08:12:00;;;;;;;80.47;30.75;;;10.40;94.60;;;;;;5008331;28;20041;-77
2021/03/24 08:14:56;;;;;;;85.88;33.03;;;10.50;94.60;;;;;;5005008;28;20093;-76
2021/03/24 08:17:42;;;;;;;84.22;32.83;;;10.60;94.60;;;;;;5004158;28;20093;-76
2021/03/24 08:20:29;;;;;;;77.03;31.27;;;10.60;94.70;;;;;;4999484;28;20042;-75
2021/03/24 08:22:59;;;;;;;81.85;32.05;;;10.70;94.70;;;;;;4999176;28;20026;-76
2021/03/24 08:26:02;;;;;;;77.63;32.40;;;10.80;94.80;;;;;;4995717;28;20022;-74
2021/03/24 08:28:53;;;;;;;81.10;32.65;;;10.90;95.30;;;;;;4998209;28;20049;-76
2021/03/24 08:31:48;;;;;;;79.72;30.65;;;11.00;95.00;;;;;;4994662;28;20539;-76
2021/03/24 08:34:35;;;;;;;81.15;30.17;;;11.00;95.10;;;;;;4985346;28;20096;-76
2021/03/24 08:37:41;;;;;;;79.68;29.55;;;11.10;95.10;;;;;;4991353;28;20030;-76
2021/03/24 08:40:28;;;;;;;70.78;29.08;;;11.20;95.20;;;;;;4992014;28;20037;-77
2021/03/24 08:43:17;;;;;;;77.53;30.65;;;11.20;95.30;;;;;;4988794;28;20986;-75
2021/03/24 08:45:51;;;;;;;70.13;29.30;;;11.30;95.60;;;;;;4992615;28;20149;-72
2021/03/24 08:48:31;;;;;;;71.30;30.27;;;11.30;95.30;;;;;;4993621;28;20384;-74
2021/03/24 08:51:04;;;;;;;74.15;30.02;;;11.40;95.40;;;;;;4995475;28;20053;-74
2021/03/24 08:53:45;;;;;;;76.43;28.63;;;11.50;95.30;;;;;;4993398;28;20026;-74
2021/03/24 08:56:30;;;;;;;73.60;28.67;;;11.50;95.20;;;;;;4993996;28;20536;-73
2021/03/24 08:59:24;;;;;;;69.97;27.08;;;11.50;95.10;;;;;;4991435;28;20489;-74
2021/03/24 09:02:28;;;;;;;68.50;28.30;;;11.60;95.20;;;;;;4992815;28;20481;-74
2021/03/24 09:05:24;;;;;;;77.35;28.13;;;11.70;95.30;;;;;;4993641;28;20034;-73
2021/03/24 09:08:15;;;;;;;67.50;26.83;;;11.70;95.30;;;;;;4993512;28;20155;-72
2021/03/24 09:10:47;;;;;;;72.35;26.23;;;11.80;95.40;;;;;;4993284;28;20029;-73
2021/03/24 09:13:31;;;;;;;67.75;26.25;;;11.80;95.20;;;;;;4991025;28;20030;-73
2021/03/24 09:16:33;;;;;;;55.42;21.83;;;11.90;95.20;;;;;;4994158;28;20071;-72
2021/03/24 09:19:14;;;;;;;48.78;16.20;;;11.90;94.70;;;;;;4988827;28;20038;-72
2021/03/24 09:22:06;;;;;;;55.72;16.00;;;12.00;93.50;;;;;;4989441;28;20050;-73
2021/03/24 09:24:53;;;;;;;44.30;14.98;;;12.00;92.60;;;;;;4990270;28;20077;-75
2021/03/24 09:27:42;;;;;;;41.85;14.20;;;12.10;92.40;;;;;;4993026;28;20520;-73
2021/03/24 09:30:40;;;;;;;52.85;15.90;;;12.10;92.00;;;;;;4997924;28;20045;-73
2021/03/24 09:33:17;;;;;;;39.60;13.98;;;12.20;92.30;;;;;;4998346;28;20065;-73
2021/03/24 09:36:11;;;;;;;40.97;13.80;;;12.30;92.40;;;;;;4992037;28;20052;-73
2021/03/24 09:38:39;;;;;;;40.13;13.55;;;12.40;91.70;;;;;;4951200;28;20053;-75
2021/03/24 09:41:29;;;;;;;43.35;14.38;;;12.40;91.40;;;;;;4933095;28;20043;-73
2021/03/24 09:44:01;;;;;;;32.25;12.00;;;12.40;91.40;;;;;;4948826;28;20071;-73
2021/03/24 09:46:36;;;;;;;32.30;11.05;;;12.40;90.30;;;;;;4948468;28;20071;-74
2021/03/24 09:49:32;;;;;;;29.40;10.57;;;12.50;90.00;;;;;;4939992;28;20124;-73
2021/03/24 09:52:23;;;;;;;28.60;11.00;;;12.50;88.20;;;;;;4958608;28;20039;-73
2021/03/24 09:55:03;;;;;;;28.52;10.13;;;12.60;88.20;;;;;;4954645;28;20057;-72
2021/03/24 09:57:45;;;;;;;28.77;9.20;;;12.50;86.60;;;;;;4955877;28;20113;-73
2021/03/24 10:00:14;;;;;;;30.48;10.10;;;12.60;85.90;;;;;;4956972;28;20997;-73
2021/03/24 10:02:48;;;;;;;28.02;10.98;;;12.70;86.70;;;;;;4956394;28;20397;-74
2021/03/24 10:05:21;;;;;;;36.05;11.63;;;12.80;88.20;;;;;;4957937;28;20043;-74
2021/03/24 10:07:59;;;;;;;27.42;10.15;;;12.80;87.50;;;;;;4953559;28;20049;-72
2021/03/24 10:10:30;;;;;;;32.50;11.45;;;12.90;88.20;;;;;;4954971;28;20938;-75
2021/03/24 10:13:17;;;;;;;24.90;8.93;;;12.90;88.20;;;;;;4953583;28;20481;-73
2021/03/24 10:16:01;;;;;;;22.40;8.73;;;12.90;86.40;;;;;;4963748;28;20042;-73
2021/03/24 10:18:32;;;;;;;25.83;10.63;;;13.00;85.70;;;;;;4987263;28;20501;-73
2021/03/24 10:21:38;;;;;;;29.25;10.25;;;13.00;85.70;;;;;;4986175;28;20050;-73
2021/03/24 10:24:24;;;;;;;22.63;8.75;;;13.10;86.70;;;;;;4972521;28;20046;-73
2021/03/24 10:26:54;;;;;;;27.58;9.07;;;13.00;84.70;;;;;;4972558;28;20039;-73
2021/03/24 10:29:26;;;;;;;23.65;8.98;;;13.10;84.10;;;;;;4978672;28;20084;-73
2021/03/24 10:32:05;;;;;;;28.20;9.82;;;13.10;84.40;;;;;;4974993;28;20022;-73
2021/03/24 10:34:46;;;;;;;23.00;9.18;;;13.10;84.30;;;;;;4974383;28;20046;-76
2021/03/24 10:37:36;;;;;;;22.45;8.85;;;13.20;85.20;;;;;;4976011;28;20038;-75
2021/03/24 10:40:10;;;;;;;28.10;9.85;;;13.20;84.30;;;;;;4974666;28;20088;-76
2021/03/24 10:42:39;;;;;;;27.83;9.88;;;13.20;84.50;;;;;;4976985;28;20042;-76
2021/03/24 10:45:34;;;;;;;26.98;10.45;;;13.30;85.00;;;;;;4960493;28;20029;-76
2021/03/24 10:48:30;;;;;;;25.38;10.88;;;13.30;83.90;;;;;;4979012;28;20536;-76
2021/03/24 10:51:17;;;;;;;29.45;11.65;;;13.30;84.40;;;;;;4978101;28;20050;-76
2021/03/24 10:53:43;;;;;;;31.95;12.38;;;13.50;85.30;;;;;;4978525;28;20516;-76
2021/03/24 10:56:31;;;;;;;27.27;11.73;;;13.50;85.30;;;;;;4976681;28;20038;-77
2021/03/24 10:59:03;;;;;;;30.80;11.60;;;13.60;84.70;;;;;;4979758;28;20042;-77
2021/03/24 11:01:51;;;;;;;24.88;11.60;;;13.60;85.10;;;;;;4995214;28;20023;-77
2021/03/24 11:04:42;;;;;;;23.73;10.90;;;13.70;85.00;;;;;;4992477;28;21162;-75
2021/03/24 11:07:30;;;;;;;28.45;12.15;;;13.70;85.10;;;;;;4994903;28;20029;-76
2021/03/24 11:10:17;;;;;;;32.63;12.95;;;13.80;85.30;;;;;;4995198;28;20026;-75
2021/03/24 11:13:01;;;;;;;30.60;11.73;;;13.80;84.30;;;;;;4994335;28;20057;-78
2021/03/24 11:15:49;;;;;;;34.63;12.65;;;13.80;84.50;;;;;;4993024;28;20030;-77
2021/03/24 11:18:25;;;;;;;30.80;12.10;;;13.90;84.30;;;;;;4999909;28;20057;-80
2021/03/24 11:20:58;;;;;;;26.48;11.60;;;13.90;84.70;;;;;;4990983;28;20038;-78
2021/03/24 11:23:33;;;;;;;28.50;11.75;;;13.80;84.00;;;;;;4995635;28;20456;-78
2021/03/24 11:26:08;;;;;;;27.23;11.63;;;13.90;84.40;;;;;;4994568;28;20079;-77
2021/03/24 11:28:43;;;;;;;29.17;12.13;;;14.10;84.60;;;;;;4996426;28;20064;-77
2021/03/24 11:31:19;;;;;;;24.55;10.65;;;14.10;83.60;;;;;;4994768;28;20037;-80
2021/03/24 11:33:48;;;;;;;27.20;10.07;;;14.20;84.00;;;;;;4995152;28;20049;-77
2021/03/24 11:36:31;;;;;;;32.97;10.90;;;14.30;83.70;;;;;;4995421;28;20538;-77
2021/03/24 11:39:12;;;;;;;26.35;10.13;;;14.40;83.20;;;;;;4993806;28;20030;-77
2021/03/24 11:41:39;;;;;;;25.63;9.73;;;14.40;81.90;;;;;;4993317;28;20506;-77
2021/03/24 11:44:15;;;;;;;22.15;8.80;;;14.40;81.00;;;;;;4993997;28;20151;-77
2021/03/24 11:46:41;;;;;;;18.25;7.80;;;14.40;81.20;;;;;;4992008;28;20034;-77
2021/03/24 11:49:39;;;;;;;26.63;7.28;;;14.50;80.40;;;;;;4992151;28;20030;-77
2021/03/24 11:52:11;;;;;;;18.58;7.50;;;14.50;78.30;;;;;;4996944;28;20022;-76
2021/03/24 11:54:48;;;;;;;;;;;14.60;78.70;;;;;;4997089;28;20037;-77
2021/03/24 11:57:26;;;;;;;17.95;7.00;;;14.70;79.20;;;;;;4993848;28;19972;-78
2021/03/24 12:00:10;;;;;;;16.85;6.78;;;14.80;78.20;;;;;;4994473;28;20017;-79
2021/03/24 12:02:53;;;;;;;16.35;7.10;;;14.90;77.30;;;;;;4996483;28;20562;-78
2021/03/24 12:05:26;;;;;;;17.52;6.47;;;14.90;76.90;;;;;;4996814;28;20048;-77
2021/03/24 12:08:27;;;;;;;19.08;6.68;;;15.00;76.20;;;;;;4994038;28;20454;-74
2021/03/24 12:11:03;;;;;;;16.65;6.75;;;15.00;75.90;;;;;;4993028;28;20034;-76
2021/03/24 12:13:36;;;;;;;15.05;6.95;;;15.00;74.60;;;;;;4992484;28;20121;-75
2021/03/24 12:16:21;;;;;;;17.75;7.38;;;15.10;75.40;;;;;;4992370;28;20038;-74
2021/03/24 12:18:53;;;;;;;19.88;7.57;;;15.20;73.90;;;;;;4993649;28;20061;-74
2021/03/24 12:21:24;;;;;;;17.70;7.55;;;15.20;73.40;;;;;;4989522;28;20159;-74
2021/03/24 12:23:53;;;;;;;14.73;6.50;;;15.30;73.80;;;;;;4990581;28;20088;-76
2021/03/24 12:26:28;;;;;;;18.98;7.72;;;15.40;72.90;;;;;;4993198;28;20283;-76
2021/03/24 12:29:03;;;;;;;22.00;8.20;;;15.50;74.10;;;;;;4992895;28;20057;-75
2021/03/24 12:31:31;;;;;;;18.55;8.48;;;15.60;72.40;;;;;;4992040;28;20034;-75
2021/03/24 12:34:00;;;;;;;20.45;7.72;;;15.60;72.00;;;;;;4990522;28;20030;-76
2021/03/24 12:36:31;;;;;;;20.38;8.57;;;15.70;72.40;;;;;;4991975;28;20092;-76
2021/03/24 12:39:05;;;;;;;21.77;9.50;;;15.80;72.00;;;;;;4993285;28;20045;-75
2021/03/24 12:41:38;;;;;;;19.10;8.77;;;15.90;71.50;;;;;;4989783;28;20152;-75
2021/03/24 12:44:15;;;;;;;24.85;9.48;;;16.00;71.60;;;;;;4993780;28;20038;-76
2021/03/24 12:46:57;;;;;;;241.80;145.95;;;16.00;70.90;;;;;;4991978;28;20113;-73
2021/03/24 12:49:30;;;;;;;51.08;25.20;;;16.10;71.80;;;;;;4989422;28;20416;-75
2021/03/24 12:52:08;;;;;;;24.70;10.73;;;16.20;71.40;;;;;;4993304;28;20558;-73
2021/03/24 12:54:33;;;;;;;22.77;10.23;;;16.20;69.20;;;;;;4997448;28;20436;-72
2021/03/24 12:57:22;;;;;;;24.17;10.38;;;16.30;70.10;;;;;;4993001;28;20026;-72
2021/03/24 13:00:14;;;;;;;24.98;9.70;;;16.40;70.20;;;;;;4990536;28;20120;-73
2021/03/24 13:02:43;;;;;;;19.17;8.68;;;16.20;68.50;;;;;;4993439;28;20536;-73
2021/03/24 13:05:39;;;;;;;23.73;8.73;;;16.40;70.20;;;;;;4990952;28;20061;-73
2021/03/24 13:08:21;;;;;;;23.58;10.20;;;16.50;70.70;;;;;;4991844;28;20030;-72
2021/03/24 13:10:59;;;;;;;;;;;16.60;69.90;;;;;;4993441;28;20073;-73
2021/03/24 13:13:33;;;;;;;25.35;10.15;;;16.80;69.60;;;;;;4991455;28;19918;-73
2021/03/24 13:16:03;;;;;;;28.17;10.40;;;16.90;69.50;;;;;;4990969;28;20089;-73
2021/03/24 13:18:46;;;;;;;24.15;10.05;;;16.90;68.70;;;;;;4989362;28;20022;-72
2021/03/24 13:21:29;;;;;;;28.17;10.02;;;17.00;69.00;;;;;;4991117;28;20064;-73
2021/03/24 13:24:17;;;;;;;21.65;9.32;;;17.00;68.50;;;;;;4989769;28;20548;-74
2021/03/24 13:26:43;;;;;;;24.80;9.77;;;17.20;69.10;;;;;;4991559;28;20030;-74
2021/03/24 13:29:40;;;;;;;29.42;12.00;;;17.20;69.30;;;;;;4989740;28;20501;-73
2021/03/24 13:32:17;;;;;;;24.85;11.40;;;17.40;68.10;;;;;;4994882;28;20149;-73